Time;durP1;ratioP1;P1;durP2;ratioP2;P2;SDS_P1;SDS_P2;PMS_P1;PMS_P2;Temp;Humidity;BMP_temperature;BMP_pressure;BME280_temperature;BME280_humidity;BME280_pressure;Samples;Min_cycle;Max_cycle;Signal;HPM_P1;HPM_P2
2023/07/13 00:00:10;;;;;;;5.75;1.70;;;;;;;-145.69;nan;51945.34;5075630;28;20289;-80
2023/07/13 00:02:36;;;;;;;5.15;2.15;;;;;;;-145.69;nan;51941.41;5075674;28;20207;-80
2023/07/13 00:05:03;;;;;;;5.43;1.55;;;;;;;-145.69;nan;51923.56;5074829;28;20194;-79
2023/07/13 00:07:32;;;;;;;4.63;1.52;;;;;;;-145.69;nan;51901.78;5075226;28;20250;-80
2023/07/13 00:10:02;;;;;;;3.05;1.73;;;;;;;-145.69;nan;51917.63;5075421;28;20199;-80
2023/07/13 00:12:31;;;;;;;3.88;1.65;;;;;;;-145.69;nan;51909.72;5075316;28;20214;-80
2023/07/13 00:14:58;;;;;;;2.20;1.50;;;;;;;-145.69;nan;51949.31;5075021;28;20198;-80
2023/07/13 00:17:27;;;;;;;5.50;1.98;;;;;;;-145.69;nan;51961.19;5075082;28;20267;-81
2023/07/13 00:19:55;;;;;;;5.18;1.95;;;;;;;-145.69;nan;51949.31;5058122;28;20222;-80
2023/07/13 00:22:23;;;;;;;1.83;1.30;;;;;;;-145.69;nan;51945.34;5055438;28;20644;-80
2023/07/13 00:24:53;;;;;;;2.80;1.65;;;;;;;-145.69;nan;51953.28;5055349;28;20199;-80
2023/07/13 00:27:19;;;;;;;3.92;1.70;;;;;;;-145.69;nan;51977.03;5054374;28;20717;-80
2023/07/13 00:29:46;;;;;;;7.07;1.55;;;;;;;-145.69;nan;51945.34;5067557;28;20203;-80
2023/07/13 00:32:12;;;;;;;2.30;1.40;;;;;;;-145.69;nan;51941.41;5075060;28;20709;-81
2023/07/13 00:34:41;;;;;;;4.18;1.63;;;;;;;-145.69;nan;51925.56;5075221;28;20205;-80
2023/07/13 00:37:08;;;;;;;4.50;1.70;;;;;;;-145.69;nan;51947.34;5074805;28;20553;-81
2023/07/13 00:39:34;;;;;;;3.58;1.40;;;;;;;-145.69;nan;51945.34;5074460;28;20213;-80
2023/07/13 00:42:01;;;;;;;5.90;1.70;;;;;;;-145.69;nan;51955.25;5074745;28;20225;-80
2023/07/13 00:44:28;;;;;;;4.53;1.77;;;;;;;-145.69;nan;51945.34;5074659;28;20562;-80
2023/07/13 00:46:55;;;;;;;3.97;1.60;;;;;;;-145.69;nan;51953.28;5074393;28;20210;-80
2023/07/13 00:49:28;;;;;;;3.13;1.70;;;;;;;-145.69;nan;51957.25;5074963;28;20248;-80
2023/07/13 00:51:59;;;;;;;3.53;1.70;;;;;;;-145.69;nan;51945.34;5073838;28;20226;-80
2023/07/13 00:54:35;;;;;;;1.55;1.27;;;;;;;-145.69;nan;51955.25;5074694;28;20289;-80
2023/07/13 00:57:05;;;;;;;4.50;1.50;;;;;;;-145.69;nan;51965.16;5074527;28;20202;-80
2023/07/13 00:59:35;;;;;;;5.65;1.60;;;;;;;-145.69;nan;51969.13;5075286;28;20285;-80
2023/07/13 01:02:02;;;;;;;2.72;1.52;;;;;;;-145.69;nan;51939.41;5074486;28;20224;-80
2023/07/13 01:04:30;;;;;;;3.10;1.40;;;;;;;-145.69;nan;51961.19;5074375;28;20207;-80
2023/07/13 01:06:59;;;;;;;1.98;1.45;;;;;;;-145.69;nan;51945.34;5073894;28;20206;-80
2023/07/13 01:09:27;;;;;;;5.93;1.67;;;;;;;-145.69;nan;51937.44;5074206;28;20199;-80
2023/07/13 01:15:39;;;;;;;4.13;1.42;;;;;;;-145.69;nan;51933.47;5090967;28;20209;-80
2023/07/13 01:18:07;;;;;;;4.68;1.25;;;;;;;-145.69;nan;51955.25;5094292;28;20295;-80
2023/07/13 01:20:36;;;;;;;4.75;1.48;;;;;;;-145.69;nan;51984.97;5094457;28;20201;-79
2023/07/13 01:23:07;;;;;;;2.70;1.50;;;;;;;-145.69;nan;51957.25;5094487;28;20194;-80
2023/07/13 01:25:34;;;;;;;3.55;1.60;;;;;;;-145.69;nan;51979.03;5076540;28;20205;-80
2023/07/13 01:28:05;;;;;;;2.65;1.50;;;;;;;-145.69;nan;51963.19;5074166;28;20203;-79
2023/07/13 01:30:34;;;;;;;2.60;1.20;;;;;;;-145.69;nan;51961.19;5073548;28;20198;-78
2023/07/13 01:33:01;;;;;;;4.32;1.58;;;;;;;-145.69;nan;51988.91;5073707;28;20202;-79
2023/07/13 01:35:27;;;;;;;1.65;1.50;;;;;;;-145.69;nan;51965.16;5073775;28;20191;-78
2023/07/13 01:37:57;;;;;;;3.80;1.58;;;;;;;-145.69;nan;51986.94;5072801;28;20593;-79
2023/07/13 01:40:25;;;;;;;4.15;1.67;;;;;;;-145.69;nan;51959.22;5074068;28;20254;-79
2023/07/13 01:42:51;;;;;;;7.93;1.70;;;;;;;-145.69;nan;51965.16;5073801;28;20207;-79
2023/07/13 01:45:18;;;;;;;3.15;1.50;;;;;;;-145.69;nan;51973.06;5073477;28;20203;-79
2023/07/13 01:47:44;;;;;;;1.80;1.30;;;;;;;-145.69;nan;51988.91;5073733;28;20217;-78
2023/07/13 01:50:11;;;;;;;2.47;1.52;;;;;;;-145.69;nan;51969.13;5073333;28;20237;-78
2023/07/13 01:52:38;;;;;;;3.53;1.50;;;;;;;-145.69;nan;51977.03;5073944;28;20565;-79
2023/07/13 01:55:05;;;;;;;4.53;1.75;;;;;;;-145.69;nan;51951.28;5073325;28;20282;-79
2023/07/13 01:57:34;;;;;;;3.13;1.40;;;;;;;-145.69;nan;51927.53;5073071;28;20245;-79
2023/07/13 02:00:04;;;;;;;3.95;1.60;;;;;;;-145.69;nan;51953.28;5073255;28;20198;-80
2023/07/13 02:02:33;;;;;;;4.53;1.50;;;;;;;-145.69;nan;51977.03;5073285;28;20198;-81
2023/07/13 02:04:59;;;;;;;3.10;1.77;;;;;;;-145.69;nan;51977.03;5073262;28;20195;-81
2023/07/13 02:07:26;;;;;;;2.63;1.20;;;;;;;-145.69;nan;51957.25;5073054;28;20207;-82
2023/07/13 02:09:52;;;;;;;1.92;1.45;;;;;;;-145.69;nan;51992.88;5073117;28;20343;-81
2023/07/13 02:12:18;;;;;;;3.50;1.45;;;;;;;-145.69;nan;51994.88;5073355;28;20201;-80
2023/07/13 02:14:46;;;;;;;1.98;1.40;;;;;;;-145.69;nan;52000.81;5073344;28;20416;-80
2023/07/13 02:17:13;;;;;;;5.40;1.50;;;;;;;-145.69;nan;51973.06;5073244;28;20204;-79
2023/07/13 02:19:40;;;;;;;4.68;1.60;;;;;;;-145.69;nan;52000.81;5072567;28;20724;-80
2023/07/13 02:22:07;;;;;;;3.75;1.67;;;;;;;-145.69;nan;51990.91;5069731;28;20209;-81
2023/07/13 02:24:33;;;;;;;4.10;1.50;;;;;;;-145.69;nan;51967.13;5072929;28;20226;-80
2023/07/13 02:27:00;;;;;;;4.05;1.77;;;;;;;-145.69;nan;52000.81;5072544;28;20564;-81
2023/07/13 02:29:29;;;;;;;7.15;1.67;;;;;;;-145.69;nan;52028.53;5073080;28;20199;-81
2023/07/13 02:31:57;;;;;;;4.45;1.63;;;;;;;-145.69;nan;52000.81;5072270;28;20551;-79
2023/07/13 02:34:23;;;;;;;5.78;1.75;;;;;;;-145.69;nan;52024.56;5072873;28;20202;-81
2023/07/13 02:36:50;;;;;;;3.42;2.33;;;;;;;-145.69;nan;51992.88;5072338;28;20590;-79
2023/07/13 02:39:16;;;;;;;11.02;2.00;;;;;;;-145.69;nan;52012.69;5072872;28;20230;-80
2023/07/13 02:41:43;;;;;;;4.55;1.50;;;;;;;-145.69;nan;51992.88;5072628;28;20202;-79
2023/07/13 02:44:10;;;;;;;3.08;1.80;;;;;;;-145.69;nan;52022.59;5070685;28;20241;-79
2023/07/13 02:46:38;;;;;;;2.33;1.55;;;;;;;-145.69;nan;51994.88;5072262;28;20245;-79
2023/07/13 02:49:06;;;;;;;5.43;1.67;;;;;;;-145.69;nan;51986.94;5072378;28;20609;-80
2023/07/13 02:51:33;;;;;;;6.40;1.80;;;;;;;-145.69;nan;52002.78;5072454;28;20593;-79
2023/07/13 02:54:00;;;;;;;5.70;1.87;;;;;;;-145.69;nan;51977.03;5072764;28;20195;-79
2023/07/13 02:56:29;;;;;;;5.63;2.03;;;;;;;-145.69;nan;52018.63;5072238;28;20198;-79
2023/07/13 02:58:55;;;;;;;5.43;1.93;;;;;;;-145.69;nan;52000.81;5072213;28;20230;-79
2023/07/13 03:01:23;;;;;;;5.57;1.90;;;;;;;-145.69;nan;52012.69;5072219;28;20203;-81
2023/07/13 03:03:50;;;;;;;4.00;1.67;;;;;;;-145.69;nan;51994.88;5072407;28;20202;-79
2023/07/13 03:06:18;;;;;;;5.23;2.03;;;;;;;-145.69;nan;52028.53;5072522;28;20260;-81
2023/07/13 03:08:45;;;;;;;3.60;1.83;;;;;;;-145.69;nan;51984.97;5072752;28;20222;-82
2023/07/13 03:11:14;;;;;;;4.57;1.90;;;;;;;-145.69;nan;52004.75;5072674;28;20214;-81
2023/07/13 03:13:42;;;;;;;3.23;1.90;;;;;;;-145.69;nan;52014.66;5072641;28;20199;-79
2023/07/13 03:16:10;;;;;;;2.83;1.80;;;;;;;-145.69;nan;52036.44;5072088;28;20664;-79
2023/07/13 03:18:37;;;;;;;3.90;1.80;;;;;;;-145.69;nan;52024.56;5072198;28;20218;-81
2023/07/13 03:21:03;;;;;;;4.10;2.00;;;;;;;-145.69;nan;52012.69;5072620;28;20336;-81
2023/07/13 03:23:31;;;;;;;3.67;1.80;;;;;;;-145.69;nan;52010.69;5072388;28;20199;-81
2023/07/13 03:26:06;;;;;;;6.38;1.80;;;;;;;-145.69;nan;52014.66;5072059;28;20673;-81
2023/07/13 03:28:33;;;;;;;6.22;1.90;;;;;;;-145.69;nan;52028.53;5072198;28;20214;-81
2023/07/13 03:31:01;;;;;;;2.80;1.67;;;;;;;-145.69;nan;52000.81;5072346;28;20199;-81
2023/07/13 03:33:27;;;;;;;4.70;1.70;;;;;;;-145.69;nan;52014.66;5072112;28;20203;-82
2023/07/13 03:35:54;;;;;;;8.57;2.17;;;;;;;-145.69;nan;52010.69;5072337;28;20198;-81
2023/07/13 03:38:21;;;;;;;5.63;1.90;;;;;;;-145.69;nan;52036.44;5071906;28;20274;-81
2023/07/13 03:40:49;;;;;;;4.77;2.00;;;;;;;-145.69;nan;52004.75;5071787;28;20226;-81
2023/07/13 03:43:15;;;;;;;3.93;1.87;;;;;;;-145.69;nan;52020.59;5072176;28;20202;-81
2023/07/13 03:45:42;;;;;;;6.70;1.90;;;;;;;-145.69;nan;52014.66;5071399;28;20210;-81
2023/07/13 03:48:08;;;;;;;5.57;2.37;;;;;;;-145.69;nan;52040.41;5072025;28;20199;-81
2023/07/13 03:50:35;;;;;;;3.87;2.07;;;;;;;-145.69;nan;52024.56;5072214;28;20244;-81
2023/07/13 03:53:01;;;;;;;6.77;2.10;;;;;;;-145.69;nan;52012.69;5072188;28;20725;-82
2023/07/13 03:55:28;;;;;;;5.37;2.17;;;;;;;-145.69;nan;52012.69;5071933;28;20210;-82
2023/07/13 03:58:00;;;;;;;4.67;2.00;;;;;;;-145.69;nan;52000.81;5071758;28;20700;-81
2023/07/13 04:00:27;;;;;;;3.73;2.00;;;;;;;-145.69;nan;51994.88;5071922;28;20206;-82
2023/07/13 04:02:53;;;;;;;3.93;2.13;;;;;;;-145.69;nan;52008.72;5075313;28;20206;-81
2023/07/13 04:05:20;;;;;;;5.57;2.10;;;;;;;-145.69;nan;52022.59;5075292;28;20549;-82
2023/07/13 04:07:46;;;;;;;3.03;1.97;;;;;;;-145.69;nan;52014.66;5075310;28;20611;-82
2023/07/13 04:10:13;;;;;;;5.50;1.90;;;;;;;-145.69;nan;52004.75;5075520;28;20206;-82
2023/07/13 04:12:39;;;;;;;5.00;2.30;;;;;;;-145.69;nan;51969.13;5075609;28;20198;-81
2023/07/13 04:15:09;;;;;;;4.57;2.00;;;;;;;-145.69;nan;52070.09;5075184;28;20387;-82
2023/07/13 04:17:35;;;;;;;6.93;1.90;;;;;;;-145.69;nan;52004.75;5075559;28;20213;-82
2023/07/13 04:20:02;;;;;;;5.87;1.87;;;;;;;-145.69;nan;52006.75;5066504;28;20694;-82
2023/07/13 04:22:28;;;;;;;3.87;1.80;;;;;;;-145.69;nan;52020.59;5055358;28;20204;-82
2023/07/13 04:24:55;;;;;;;3.50;1.90;;;;;;;-145.69;nan;51996.84;5054942;28;20207;-82
2023/07/13 04:27:21;;;;;;;6.93;1.98;;;;;;;-145.69;nan;51992.88;5075068;28;20252;-82
2023/07/13 04:29:48;;;;;;;3.85;1.90;;;;;;;-145.69;nan;52004.75;5075151;28;20195;-82
2023/07/13 04:32:15;;;;;;;5.33;2.40;;;;;;;-145.69;nan;51998.81;5075322;28;20198;-82
2023/07/13 04:34:42;;;;;;;7.17;2.30;;;;;;;-145.69;nan;51988.91;5074458;28;20197;-81
2023/07/13 04:37:08;;;;;;;5.77;2.10;;;;;;;-145.69;nan;51984.97;5075048;28;20207;-82
2023/07/13 04:39:35;;;;;;;5.03;2.25;;;;;;;-145.69;nan;52012.69;5074137;28;20237;-82
2023/07/13 04:42:01;;;;;;;2.85;2.10;;;;;;;-145.69;nan;52002.78;5074875;28;20210;-82
2023/07/13 04:44:28;;;;;;;6.40;2.22;;;;;;;-145.69;nan;51992.88;5074676;28;20658;-82
2023/07/13 04:46:54;;;;;;;8.27;2.20;;;;;;;-145.69;nan;52012.69;5075051;28;20233;-82
2023/07/13 04:49:22;;;;;;;4.07;1.98;;;;;;;-145.69;nan;51982.97;5074997;28;20222;-82
2023/07/13 04:51:49;;;;;;;4.20;1.90;;;;;;;-145.69;nan;51973.06;5074375;28;20253;-83
2023/07/13 04:54:16;;;;;;;4.63;1.55;;;;;;;-145.69;nan;52020.59;5074665;28;20199;-83
2023/07/13 04:56:43;;;;;;;3.17;2.00;;;;;;;-145.69;nan;51988.91;5074700;28;20645;-81
2023/07/13 04:59:09;;;;;;;3.35;2.10;;;;;;;-145.69;nan;51982.97;5074152;28;20222;-81
2023/07/13 05:01:36;;;;;;;2.95;1.75;;;;;;;-145.69;nan;52000.81;5074607;28;20209;-82
2023/07/13 05:04:02;;;;;;;5.38;1.98;;;;;;;-145.69;nan;52008.72;5074531;28;20191;-82
2023/07/13 05:06:31;;;;;;;6.00;2.00;;;;;;;-145.69;nan;51981.00;5074335;28;20198;-82
2023/07/13 05:08:57;;;;;;;4.72;1.90;;;;;;;-145.69;nan;51961.19;5074225;28;20252;-82
2023/07/13 05:11:24;;;;;;;4.78;2.00;;;;;;;-145.69;nan;51973.06;5074300;28;20206;-83
2023/07/13 05:13:51;;;;;;;4.50;1.60;;;;;;;-145.69;nan;51957.25;5074418;28;20566;-83
2023/07/13 05:16:17;;;;;;;5.18;1.63;;;;;;;-145.69;nan;51988.91;5074457;28;20256;-82
2023/07/13 05:18:44;;;;;;;3.17;1.70;;;;;;;-145.69;nan;51943.38;5073838;28;20685;-82
2023/07/13 05:21:11;;;;;;;3.30;1.70;;;;;;;-145.69;nan;51988.91;5074186;28;20449;-82
2023/07/13 05:23:41;;;;;;;3.25;1.65;;;;;;;-145.69;nan;51996.84;5074274;28;20569;-83
2023/07/13 05:26:08;;;;;;;3.50;1.58;;;;;;;-145.69;nan;51931.50;5074112;28;20199;-83
2023/07/13 05:28:34;;;;;;;4.30;1.90;;;;;;;-145.69;nan;51957.25;5074239;28;20690;-83
2023/07/13 05:31:01;;;;;;;4.25;1.80;;;;;;;-145.69;nan;51967.13;5073816;28;20199;-83
2023/07/13 05:33:30;;;;;;;3.42;1.58;;;;;;;-145.69;nan;51971.09;5074041;28;20569;-82
2023/07/13 05:35:56;;;;;;;4.07;1.77;;;;;;;-145.69;nan;51953.28;5074091;28;20210;-82
2023/07/13 05:38:23;;;;;;;5.00;1.60;;;;;;;-145.69;nan;51957.25;5073679;28;20634;-82
2023/07/13 05:40:51;;;;;;;2.47;1.45;;;;;;;-145.69;nan;51935.47;5072896;28;20198;-83
2023/07/13 05:43:18;;;;;;;7.55;1.60;;;;;;;-145.69;nan;51921.59;5073766;28;20207;-83
2023/07/13 05:45:44;;;;;;;2.92;1.40;;;;;;;-145.69;nan;51913.69;5073639;28;20225;-83
2023/07/13 05:48:11;;;;;;;2.50;1.50;;;;;;;-145.69;nan;51905.75;5073713;28;20198;-82
2023/07/13 05:50:37;;;;;;;4.50;1.45;;;;;;;-145.69;nan;51913.69;5073126;28;20233;-84
2023/07/13 05:53:04;;;;;;;2.45;1.48;;;;;;;-145.69;nan;51937.44;5073385;28;20202;-80
2023/07/13 05:55:31;;;;;;;3.63;1.45;;;;;;;-145.69;nan;51939.41;5072809;28;20674;-83
2023/07/13 05:58:00;;;;;;;2.17;1.35;;;;;;;-145.69;nan;51893.88;5073412;28;20205;-83
2023/07/13 06:00:26;;;;;;;2.22;1.00;;;;;;;-145.69;nan;51891.88;5073295;28;20301;-80
2023/07/13 06:02:53;;;;;;;4.43;1.30;;;;;;;-145.69;nan;51866.16;5073363;28;20645;-80
2023/07/13 06:05:20;;;;;;;3.65;1.02;;;;;;;-145.69;nan;51885.94;5073047;28;20201;-81
2023/07/13 06:07:46;;;;;;;2.25;1.25;;;;;;;-145.69;nan;51897.84;5073108;28;20206;-80
2023/07/13 06:10:13;;;;;;;4.70;1.27;;;;;;;-145.69;nan;51915.66;5073234;28;20202;-80
2023/07/13 06:12:39;;;;;;;3.58;1.23;;;;;;;-145.69;nan;51889.91;5073053;28;20199;-80
2023/07/13 06:15:08;;;;;;;5.55;1.58;;;;;;;-145.69;nan;51889.91;5073049;28;20554;-80
2023/07/13 06:17:35;;;;;;;1.98;1.10;;;;;;;-145.69;nan;51885.94;5073460;28;20203;-80
2023/07/13 06:20:01;;;;;;;4.20;1.15;;;;;;;-145.69;nan;51876.06;5072617;28;20234;-80
2023/07/13 06:22:28;;;;;;;6.72;1.40;;;;;;;-145.69;nan;51874.06;5072581;28;20615;-81
2023/07/13 06:24:54;;;;;;;3.08;1.30;;;;;;;-145.69;nan;51901.78;5072411;28;20604;-80
2023/07/13 06:27:21;;;;;;;3.03;1.10;;;;;;;-145.69;nan;51882.00;5067403;28;20199;-80
2023/07/13 06:29:47;;;;;;;5.50;1.30;;;;;;;-145.69;nan;51882.00;5052836;28;20207;-80
2023/07/13 06:32:15;;;;;;;6.93;1.15;;;;;;;-145.69;nan;51901.78;5053283;28;20211;-80
2023/07/13 06:34:42;;;;;;;2.92;1.25;;;;;;;-145.69;nan;51907.72;5053075;28;20661;-82
2023/07/13 06:37:09;;;;;;;3.35;1.38;;;;;;;-145.69;nan;51927.53;5052965;28;20717;-81
2023/07/13 06:39:36;;;;;;;5.72;1.25;;;;;;;-145.69;nan;51899.81;5052958;28;20609;-81
2023/07/13 06:42:02;;;;;;;2.47;1.35;;;;;;;-145.69;nan;51882.00;5064904;28;20198;-80
2023/07/13 06:44:28;;;;;;;3.00;1.23;;;;;;;-145.69;nan;51903.78;5072992;28;20210;-81
2023/07/13 06:46:55;;;;;;;1.77;1.20;;;;;;;-145.69;nan;51876.06;5073703;28;20202;-81
2023/07/13 06:49:23;;;;;;;4.03;1.25;;;;;;;-145.69;nan;51897.84;5072786;28;20584;-81
2023/07/13 06:51:49;;;;;;;2.08;1.20;;;;;;;-145.69;nan;51937.44;5072588;28;20230;-81
2023/07/13 06:54:16;;;;;;;3.92;1.23;;;;;;;-145.69;nan;51874.06;5072229;28;20194;-81
2023/07/13 06:56:42;;;;;;;2.38;1.25;;;;;;;-145.69;nan;51913.69;5073834;28;20256;-82
2023/07/13 06:59:09;;;;;;;2.30;1.10;;;;;;;-145.69;nan;51903.78;5073181;28;20233;-81
2023/07/13 07:01:35;;;;;;;3.08;1.23;;;;;;;-145.69;nan;51905.75;5072469;28;20681;-80
2023/07/13 07:04:02;;;;;;;2.95;1.27;;;;;;;-145.69;nan;51909.72;5073129;28;20191;-81
2023/07/13 07:06:29;;;;;;;2.75;1.10;;;;;;;-145.69;nan;51893.88;5073402;28;20203;-82
2023/07/13 07:08:56;;;;;;;2.75;1.20;;;;;;;-145.69;nan;51913.69;5074555;28;20199;-82
2023/07/13 07:11:25;;;;;;;4.22;1.13;;;;;;;-145.69;nan;51878.03;5073423;28;20293;-82
2023/07/13 07:13:53;;;;;;;2.78;1.20;;;;;;;-145.69;nan;51895.84;5074709;28;20202;-82
2023/07/13 07:16:21;;;;;;;2.33;1.08;;;;;;;-145.69;nan;51887.94;5075904;28;20240;-82
2023/07/13 07:18:48;;;;;;;2.15;1.13;;;;;;;-145.69;nan;51893.88;5073534;28;20558;-82
2023/07/13 07:21:15;;;;;;;2.67;1.20;;;;;;;-145.69;nan;51856.25;5073332;28;20222;-82
2023/07/13 07:23:43;;;;;;;3.78;1.10;;;;;;;-145.69;nan;51882.00;5073360;28;20194;-83
2023/07/13 07:26:11;;;;;;;1.40;1.00;;;;;;;-145.69;nan;51878.03;5072321;28;20225;-82
2023/07/13 07:28:40;;;;;;;3.72;1.02;;;;;;;-145.69;nan;51862.19;5072421;28;20199;-82
2023/07/13 07:31:06;;;;;;;4.07;1.20;;;;;;;-145.69;nan;51862.19;5072647;28;20578;-82
2023/07/13 07:33:34;;;;;;;4.75;1.08;;;;;;;-145.69;nan;51901.78;5073356;28;20295;-83
2023/07/13 07:36:00;;;;;;;2.28;1.17;;;;;;;-145.69;nan;51862.19;5075013;28;20285;-84
2023/07/13 07:38:27;;;;;;;4.47;1.13;;;;;;;-145.69;nan;51882.00;5076573;28;20208;-83
2023/07/13 07:40:55;;;;;;;2.15;0.95;;;;;;;-145.69;nan;51897.84;5076952;28;20233;-83
2023/07/13 07:43:21;;;;;;;3.58;1.20;;;;;;;-145.69;nan;51874.06;5076496;28;20206;-83
2023/07/13 07:45:48;;;;;;;4.68;1.30;;;;;;;-145.69;nan;51893.88;5077225;28;20202;-82
2023/07/13 07:48:14;;;;;;;5.80;1.25;;;;;;;-145.69;nan;51872.09;5076185;28;20665;-83
2023/07/13 07:50:41;;;;;;;1.95;1.08;;;;;;;-145.69;nan;51889.91;5077746;28;20221;-83
2023/07/13 07:53:10;;;;;;;4.60;0.98;;;;;;;-145.69;nan;51878.03;5077824;28;20234;-83
2023/07/13 07:55:37;;;;;;;2.25;0.90;;;;;;;-145.69;nan;51854.28;5077624;28;20260;-83
2023/07/13 07:58:06;;;;;;;3.25;1.08;;;;;;;-145.69;nan;51878.03;5076841;28;20202;-84
2023/07/13 08:00:32;;;;;;;2.38;1.10;;;;;;;-145.69;nan;51848.34;5076130;28;20231;-85
2023/07/13 08:03:00;;;;;;;3.63;0.75;;;;;;;-145.69;nan;51874.06;5075756;28;20202;-84
2023/07/13 08:05:26;;;;;;;3.63;1.00;;;;;;;-145.69;nan;51862.19;5075287;28;20658;-84
2023/07/13 08:07:53;;;;;;;5.55;1.05;;;;;;;-145.69;nan;51858.22;5075925;28;20207;-83
2023/07/13 08:10:20;;;;;;;3.28;1.08;;;;;;;-145.69;nan;51856.25;5075718;28;20203;-83
2023/07/13 08:12:49;;;;;;;2.08;0.93;;;;;;;-145.69;nan;51848.34;5075578;28;20252;-83
2023/07/13 08:15:17;;;;;;;4.10;1.08;;;;;;;-145.69;nan;51866.16;5075492;28;20594;-84
2023/07/13 08:17:44;;;;;;;3.00;0.90;;;;;;;-145.69;nan;51854.28;5075759;28;20198;-84
2023/07/13 08:20:11;;;;;;;4.03;1.15;;;;;;;-145.69;nan;51836.44;5071922;28;20233;-84
2023/07/13 08:22:38;;;;;;;3.08;1.10;;;;;;;-145.69;nan;51826.56;5076099;28;20277;-84
2023/07/13 08:25:05;;;;;;;3.55;1.05;;;;;;;-145.69;nan;51800.81;5075540;28;20206;-84
2023/07/13 08:27:32;;;;;;;11.52;1.00;;;;;;;-145.69;nan;51810.72;5075665;28;20242;-84
2023/07/13 08:29:59;;;;;;;7.25;1.10;;;;;;;-145.69;nan;51808.72;5075636;28;20222;-84
2023/07/13 08:32:26;;;;;;;5.30;0.90;;;;;;;-145.69;nan;51814.66;5075270;28;20199;-84
2023/07/13 08:34:53;;;;;;;3.03;1.10;;;;;;;-145.69;nan;51808.72;5075295;28;20631;-85
2023/07/13 08:37:20;;;;;;;3.15;1.15;;;;;;;-145.69;nan;51812.69;5075453;28;20222;-85
2023/07/13 08:39:47;;;;;;;4.07;0.90;;;;;;;-145.69;nan;51796.84;5075162;28;20271;-85
2023/07/13 08:42:23;;;;;;;3.30;0.90;;;;;;;-145.69;nan;51810.72;5074902;28;20222;-83
2023/07/13 08:44:57;;;;;;;1.98;0.98;;;;;;;-145.69;nan;51836.44;5074980;28;20221;-84
2023/07/13 08:47:25;;;;;;;6.47;1.02;;;;;;;-145.69;nan;51826.56;5074704;28;20237;-85
2023/07/13 08:49:53;;;;;;;4.38;0.90;;;;;;;-145.69;nan;51794.88;5074826;28;20677;-85
2023/07/13 08:52:32;;;;;;;5.72;1.00;;;;;;;-145.69;nan;51810.72;5073944;28;20266;-88
2023/07/13 08:55:03;;;;;;;3.28;0.88;;;;;;;-145.69;nan;51802.78;5075270;28;20256;-83
2023/07/13 08:57:35;;;;;;;2.70;0.80;;;;;;;-145.69;nan;51775.06;5075213;28;20545;-84
2023/07/13 09:00:04;;;;;;;8.02;0.90;;;;;;;-145.69;nan;51806.75;5074144;28;20222;-84
2023/07/13 09:02:43;;;;;;;6.40;1.00;;;;;;;-145.69;nan;51826.56;5074854;28;20207;-84
2023/07/13 09:05:15;;;;;;;3.30;1.00;;;;;;;-145.69;nan;51810.72;5074603;28;20217;-85
2023/07/13 09:08:04;;;;;;;2.53;0.80;;;;;;;-145.69;nan;51783.00;5074995;28;20625;-86
2023/07/13 09:10:45;;;;;;;2.67;0.80;;;;;;;-145.69;nan;51788.94;5075665;28;20230;-86
2023/07/13 09:13:29;;;;;;;6.10;1.10;;;;;;;-145.69;nan;51761.22;5054910;28;20211;-86
2023/07/13 09:15:56;;;;;;;1.15;0.73;;;;;;;-145.69;nan;51765.16;5054983;28;20222;-86
2023/07/13 09:18:28;;;;;;;2.83;0.80;;;;;;;-145.69;nan;51759.22;5055658;28;20708;-84
2023/07/13 09:20:59;;;;;;;4.68;0.90;;;;;;;-145.69;nan;51767.16;5068289;28;20693;-85
2023/07/13 09:23:30;;;;;;;5.15;1.10;;;;;;;-145.69;nan;51749.31;5073546;28;20203;-85
2023/07/13 09:26:06;;;;;;;5.30;1.10;;;;;;;-145.69;nan;51786.94;5075083;28;20289;-84
2023/07/13 09:28:38;;;;;;;1.80;0.90;;;;;;;-145.69;nan;51763.19;5074673;28;20198;-84
2023/07/13 09:31:08;;;;;;;3.13;0.95;;;;;;;-145.69;nan;51783.00;5074648;28;20210;-84
2023/07/13 09:33:34;;;;;;;3.30;1.00;;;;;;;-145.69;nan;51779.03;5074171;28;20187;-85
2023/07/13 09:36:18;;;;;;;3.00;1.00;;;;;;;-145.69;nan;51771.09;5074652;28;20206;-84
2023/07/13 09:38:46;;;;;;;5.13;1.63;;;;;;;-145.69;nan;51771.09;5075079;28;20198;-85
2023/07/13 09:41:22;;;;;;;2.78;1.15;;;;;;;-145.69;nan;51800.81;5074187;28;20571;-84
2023/07/13 09:44:09;;;;;;;2.35;1.15;;;;;;;-145.69;nan;51749.31;5054646;28;20206;-85
2023/07/13 09:46:35;;;;;;;1.38;0.90;;;;;;;-145.69;nan;51751.31;5054586;28;20207;-84
2023/07/13 09:49:02;;;;;;;3.85;1.08;;;;;;;-145.69;nan;51771.09;5054427;28;20199;-85
2023/07/13 09:51:30;;;;;;;2.28;1.10;;;;;;;-145.69;nan;51765.16;5071637;28;20229;-85
2023/07/13 09:53:59;;;;;;;2.10;0.90;;;;;;;-145.69;nan;51739.44;5074803;28;20195;-84
2023/07/13 09:56:29;;;;;;;7.00;1.30;;;;;;;-145.69;nan;51741.41;5074460;28;20207;-84
2023/07/13 09:58:59;;;;;;;7.50;1.08;;;;;;;-145.69;nan;51715.66;5073040;28;20207;-85
2023/07/13 10:01:34;;;;;;;2.10;1.13;;;;;;;-145.69;nan;51747.34;5073684;28;20317;-84
2023/07/13 10:04:01;;;;;;;2.85;0.90;;;;;;;-145.69;nan;51757.25;5073339;28;20259;-83
2023/07/13 10:06:28;;;;;;;1.63;0.73;;;;;;;-145.69;nan;51717.66;5074261;28;20199;-85
2023/07/13 10:08:57;;;;;;;3.97;1.10;;;;;;;-145.69;nan;51731.50;5073947;28;20241;-85
2023/07/13 10:11:27;;;;;;;1.00;0.77;;;;;;;-145.69;nan;51711.72;5073281;28;20289;-83
2023/07/13 10:13:56;;;;;;;5.38;0.95;;;;;;;-145.69;nan;51717.66;5053965;28;20203;-85
2023/07/13 10:16:25;;;;;;;2.65;1.13;;;;;;;-145.69;nan;51709.72;5053935;28;20204;-83
2023/07/13 10:19:00;;;;;;;5.72;1.15;;;;;;;-145.69;nan;51713.69;5053642;28;20199;-84
2023/07/13 10:21:31;;;;;;;2.83;0.90;;;;;;;-145.69;nan;51719.63;5053496;28;20226;-84
2023/07/13 10:24:06;;;;;;;6.78;0.93;;;;;;;-145.69;nan;51719.63;5053249;28;20261;-84
2023/07/13 10:26:35;;;;;;;2.72;0.80;;;;;;;-145.69;nan;51691.91;5053055;28;20230;-84
2023/07/13 10:29:07;;;;;;;2.17;0.80;;;;;;;-145.69;nan;51743.38;5053758;28;20203;-82
2023/07/13 10:31:38;;;;;;;4.13;0.90;;;;;;;-145.69;nan;51713.69;5052667;28;20204;-83
2023/07/13 10:34:05;;;;;;;2.65;0.90;;;;;;;-145.69;nan;51771.09;5064796;28;20194;-83
2023/07/13 10:36:40;;;;;;;2.35;1.05;;;;;;;-145.69;nan;51741.41;5073626;28;20654;-85
2023/07/13 10:39:16;;;;;;;4.60;0.98;;;;;;;-145.69;nan;51711.72;5073170;28;20522;-84
2023/07/13 10:41:45;;;;;;;4.68;1.00;;;;;;;-145.69;nan;51699.81;5072301;28;20689;-83
2023/07/13 10:44:21;;;;;;;1.98;1.00;;;;;;;-145.69;nan;51745.38;5071120;28;20217;-82
2023/07/13 10:46:50;;;;;;;3.33;0.90;;;;;;;-145.69;nan;51727.53;5071142;28;20201;-82
2023/07/13 10:49:18;;;;;;;5.20;1.10;;;;;;;-145.69;nan;51697.84;5071659;28;20199;-82
2023/07/13 10:51:47;;;;;;;2.42;0.98;;;;;;;-145.69;nan;51737.44;5072156;28;20227;-83
2023/07/13 10:54:24;;;;;;;1.38;1.00;;;;;;;-145.69;nan;51687.94;5072853;28;20226;-82
2023/07/13 10:56:54;;;;;;;3.40;0.85;;;;;;;-145.69;nan;51683.97;5072990;28;20202;-82
2023/07/13 10:59:27;;;;;;;6.30;1.48;;;;;;;-145.69;nan;51674.09;5072434;28;20202;-83
2023/07/13 11:01:58;;;;;;;1.52;0.80;;;;;;;-145.69;nan;51691.91;5071587;28;20318;-82
2023/07/13 11:04:29;;;;;;;4.93;1.23;;;;;;;-145.69;nan;51751.31;5072442;28;20222;-82
2023/07/13 11:06:58;;;;;;;3.58;1.10;;;;;;;-145.69;nan;51755.25;5070636;28;20722;-80
2023/07/13 11:09:39;;;;;;;4.13;0.93;;;;;;;-145.69;nan;51745.38;5072307;28;20206;-81
2023/07/13 11:14:31;;;;;;;5.68;1.00;;;;;;;-145.69;32.64;51747.34;5109390;27;20901;-82
2023/07/13 11:16:59;;;;;;;13.57;6.30;;;;;;;-145.69;31.73;51771.09;5110248;28;20287;-82
2023/07/13 11:19:40;;;;;;;24.77;2.67;;;;;;;-145.69;32.65;51725.56;5110305;28;20197;-82
2023/07/13 11:22:16;;;;;;;4.45;1.98;;;;;;;-145.69;32.84;51717.66;5110969;28;20220;-86
2023/07/13 11:24:57;;;;;;;10.10;3.88;;;;;;;-145.69;32.15;51733.50;5108157;28;20197;-81
2023/07/13 11:27:36;;;;;;;4.65;1.50;;;;;;;-145.69;32.35;51721.59;5110685;28;20562;-87
2023/07/13 11:30:25;;;;;;;2.28;1.10;;;;;;;-145.69;33.44;51741.41;5110771;28;20197;-86
2023/07/13 11:33:06;;;;;;;3.15;0.90;;;;;;;-145.69;33.10;51727.53;5109992;28;20225;-86
2023/07/13 11:35:35;;;;;;;4.85;1.17;;;;;;;-145.69;33.44;51757.25;5110169;28;20238;-81
2023/07/13 11:38:03;;;;;;;3.33;1.75;;;;;;;-145.69;33.16;51743.38;5110021;28;20201;-82
2023/07/13 11:40:30;;;;;;;3.88;1.00;;;;;;;-145.69;32.71;51731.50;5110231;28;20201;-79
2023/07/13 11:43:00;;;;;;;2.38;0.90;;;;;;;-145.69;31.50;51721.59;5110277;28;20189;-84